Time;durP1;ratioP1;P1;durP2;ratioP2;P2;SDS_P1;SDS_P2;PMS_P1;PMS_P2;Temp;Humidity;BMP_temperature;BMP_pressure;BME280_temperature;BME280_humidity;BME280_pressure;Samples;Min_cycle;Max_cycle;Signal;HPM_P1;HPM_P2
2023/09/20 00:00:24;;;;;;;1999.90;999.90;;;16.80;99.90;;;;;;4967082;28;20039;-67
2023/09/20 00:02:50;;;;;;;1999.90;999.90;;;16.80;99.90;;;;;;4980250;28;20042;-68
2023/09/20 00:05:18;;;;;;;1999.90;999.90;;;16.80;99.90;;;;;;4984292;28;20052;-67
2023/09/20 00:07:43;;;;;;;1999.90;999.90;;;16.70;99.90;;;;;;4983007;28;20464;-67
2023/09/20 00:10:15;;;;;;;1999.90;999.90;;;16.70;99.90;;;;;;4975705;28;20083;-67
2023/09/20 00:12:41;;;;;;;1999.90;999.90;;;16.70;99.90;;;;;;4975350;28;20456;-67
2023/09/20 00:15:07;;;;;;;1999.90;999.90;;;16.70;99.90;;;;;;4996399;28;20047;-67
2023/09/20 00:17:34;;;;;;;1999.90;999.90;;;16.70;99.90;;;;;;5002748;28;20051;-67
2023/09/20 00:20:13;;;;;;;1999.90;999.90;;;16.70;99.90;;;;;;4967091;28;20126;-67
2023/09/20 00:22:40;;;;;;;1999.90;999.90;;;16.70;99.90;;;;;;5016795;28;20073;-67
2023/09/20 00:25:10;;;;;;;1999.90;999.90;;;16.70;99.90;;;;;;4978628;28;20049;-67
2023/09/20 00:27:38;;;;;;;1999.90;999.90;;;16.70;99.90;;;;;;4978448;28;20054;-67
2023/09/20 00:30:11;;;;;;;1999.90;999.90;;;16.70;99.90;;;;;;4968649;28;20452;-67
2023/09/20 00:32:40;;;;;;;1999.90;999.90;;;16.70;99.90;;;;;;4979403;28;20054;-67
2023/09/20 00:35:11;;;;;;;1999.90;999.90;;;16.60;99.90;;;;;;4984770;28;20070;-67
2023/09/20 00:37:41;;;;;;;1999.90;999.90;;;16.60;99.90;;;;;;4974570;28;20046;-67
2023/09/20 00:40:16;;;;;;;1999.90;999.90;;;16.70;99.90;;;;;;4979839;28;20058;-68
2023/09/20 00:42:49;;;;;;;1999.90;999.90;;;16.70;99.90;;;;;;4972450;28;20074;-67
2023/09/20 00:45:15;;;;;;;1999.90;999.90;;;16.80;99.90;;;;;;4950315;28;20050;-67
2023/09/20 00:47:51;;;;;;;1999.90;999.90;;;16.80;99.90;;;;;;4977790;28;20141;-68
2023/09/20 00:50:17;;;;;;;1999.90;999.90;;;16.80;99.90;;;;;;4986267;28;20046;-67
2023/09/20 00:52:46;;;;;;;1999.90;999.90;;;16.80;99.90;;;;;;4985252;28;20474;-67
2023/09/20 00:55:15;;;;;;;1999.90;999.90;;;16.80;99.90;;;;;;4985299;28;20107;-66
2023/09/20 00:57:45;;;;;;;1999.90;999.90;;;16.80;99.90;;;;;;4984876;28;20031;-67
2023/09/20 01:00:21;;;;;;;1999.90;999.90;;;16.80;99.90;;;;;;5026553;27;20034;-67
2023/09/20 01:02:51;;;;;;;1999.90;999.90;;;16.80;99.90;;;;;;5013555;28;20747;-67
2023/09/20 01:05:21;;;;;;;1999.90;999.90;;;16.80;99.90;;;;;;4980298;28;20042;-67
2023/09/20 01:07:54;;;;;;;1999.90;999.90;;;16.80;99.90;;;;;;4965023;28;20038;-67
2023/09/20 01:10:27;;;;;;;1999.90;999.90;;;16.80;99.90;;;;;;4982613;28;20536;-67
2023/09/20 01:12:57;;;;;;;1999.90;999.90;;;16.80;99.90;;;;;;4980692;28;20096;-67
2023/09/20 01:15:24;;;;;;;1999.90;999.90;;;16.80;99.90;;;;;;5001097;28;20047;-67
2023/09/20 01:17:58;;;;;;;1999.90;999.90;;;16.80;99.90;;;;;;4982947;28;20128;-67
2023/09/20 01:20:25;;;;;;;1999.90;999.90;;;16.80;99.90;;;;;;4961904;28;20369;-68
2023/09/20 01:22:54;;;;;;;1999.90;999.90;;;16.80;99.90;;;;;;4979738;28;20042;-67
2023/09/20 01:25:22;;;;;;;1999.90;999.90;;;16.70;99.90;;;;;;4979492;28;20483;-67
2023/09/20 01:27:50;;;;;;;1999.90;999.90;;;16.70;99.90;;;;;;4977754;28;20043;-67
2023/09/20 01:30:16;;;;;;;1999.90;999.90;;;16.70;99.90;;;;;;4979766;28;20095;-67
2023/09/20 01:32:42;;;;;;;1999.90;999.90;;;16.80;99.90;;;;;;5017704;28;20056;-67
2023/09/20 01:35:09;;;;;;;1999.90;999.90;;;16.70;99.90;;;;;;4989580;28;20049;-67
2023/09/20 01:37:35;;;;;;;1999.90;999.90;;;16.80;99.90;;;;;;4981481;28;20095;-67
2023/09/20 01:40:04;;;;;;;1999.90;999.90;;;16.80;99.90;;;;;;4984244;28;20058;-67
2023/09/20 01:42:30;;;;;;;1999.90;999.90;;;16.80;99.90;;;;;;4984597;28;20054;-67
2023/09/20 01:44:56;;;;;;;1999.90;999.90;;;16.80;99.90;;;;;;4988675;28;20038;-67
2023/09/20 01:47:21;;;;;;;1999.90;999.90;;;16.80;99.90;;;;;;4980189;28;20073;-67
2023/09/20 01:49:49;;;;;;;1999.90;999.90;;;16.80;99.90;;;;;;4984827;28;20380;-67
2023/09/20 01:52:14;;;;;;;1999.90;999.90;;;16.80;99.90;;;;;;4986777;28;20048;-68
2023/09/20 01:54:42;;;;;;;1999.90;999.90;;;16.80;99.90;;;;;;4982020;28;20055;-67
2023/09/20 01:57:07;;;;;;;1999.90;999.90;;;16.90;99.90;;;;;;4975736;28;20421;-67
2023/09/20 01:59:33;;;;;;;1999.90;999.90;;;16.80;99.90;;;;;;5005622;28;20046;-67
2023/09/20 02:01:59;;;;;;;1999.90;999.90;;;16.80;99.90;;;;;;5007583;28;20049;-67
2023/09/20 02:04:24;;;;;;;1999.90;999.90;;;16.80;99.90;;;;;;4985015;28;20041;-67
2023/09/20 02:06:51;;;;;;;1999.90;999.90;;;16.90;99.90;;;;;;5013573;28;20034;-68
2023/09/20 02:09:18;;;;;;;1999.90;999.90;;;16.90;99.90;;;;;;4980804;28;20046;-67
2023/09/20 02:11:44;;;;;;;1999.90;999.90;;;16.90;99.90;;;;;;4978523;28;20046;-67
2023/09/20 02:14:11;;;;;;;1999.90;999.90;;;16.90;99.90;;;;;;4983119;28;20050;-67
2023/09/20 02:16:38;;;;;;;1999.90;999.90;;;16.90;99.90;;;;;;4968743;28;20103;-67
2023/09/20 02:19:06;;;;;;;1999.90;999.90;;;16.90;99.90;;;;;;4974562;28;20043;-67
2023/09/20 02:21:32;;;;;;;1999.90;999.90;;;17.00;99.90;;;;;;4987003;28;20073;-67
2023/09/20 02:23:58;;;;;;;1999.90;999.90;;;17.00;99.90;;;;;;5013363;28;20081;-67
2023/09/20 02:26:24;;;;;;;1999.90;999.90;;;17.00;99.90;;;;;;4984391;28;20051;-67
2023/09/20 02:28:51;;;;;;;1999.90;999.90;;;17.00;99.90;;;;;;4975066;28;20457;-67
2023/09/20 02:31:17;;;;;;;1999.90;999.90;;;17.10;99.90;;;;;;4986587;28;20054;-67
2023/09/20 02:33:43;;;;;;;1999.90;999.90;;;17.10;99.90;;;;;;4983020;28;20605;-67
2023/09/20 02:36:10;;;;;;;1999.90;999.90;;;17.10;99.90;;;;;;4985406;28;20084;-67
2023/09/20 02:38:37;;;;;;;1999.90;999.90;;;17.10;99.90;;;;;;4987168;28;20047;-67
2023/09/20 02:41:03;;;;;;;1999.90;999.90;;;17.10;99.90;;;;;;4980029;28;20065;-67
2023/09/20 02:43:29;;;;;;;1999.90;999.90;;;17.20;99.90;;;;;;4984552;28;20082;-67
2023/09/20 02:45:59;;;;;;;1999.90;999.90;;;17.20;99.90;;;;;;4988938;28;20147;-67
2023/09/20 02:48:26;;;;;;;1999.90;999.90;;;17.20;99.90;;;;;;4984068;28;20494;-67
2023/09/20 02:50:52;;;;;;;1999.90;999.90;;;17.20;99.90;;;;;;4982191;28;20127;-67
2023/09/20 02:53:18;;;;;;;1999.90;999.90;;;17.20;99.90;;;;;;4981847;28;20128;-67
2023/09/20 02:55:45;;;;;;;1999.90;999.90;;;17.20;99.90;;;;;;4975748;28;20137;-67
2023/09/20 02:58:12;;;;;;;1999.90;999.90;;;17.20;99.90;;;;;;4980174;28;20064;-67
2023/09/20 03:00:39;;;;;;;1999.90;999.90;;;17.10;99.90;;;;;;4983004;28;20038;-67
2023/09/20 03:03:06;;;;;;;1999.90;999.90;;;17.20;99.90;;;;;;4977623;28;20042;-67
2023/09/20 03:05:34;;;;;;;1999.90;999.90;;;17.20;99.90;;;;;;4979448;28;20042;-67
2023/09/20 03:08:01;;;;;;;1999.90;999.90;;;17.20;99.90;;;;;;4984533;28;20043;-67
2023/09/20 03:10:28;;;;;;;1999.90;999.90;;;17.20;99.90;;;;;;4979886;28;20056;-68
2023/09/20 03:12:55;;;;;;;1999.90;999.90;;;17.20;99.90;;;;;;4990592;28;20088;-67
2023/09/20 03:15:23;;;;;;;1999.90;999.90;;;17.20;99.90;;;;;;4973879;28;20073;-67
2023/09/20 03:17:51;;;;;;;1999.90;999.90;;;17.20;99.90;;;;;;4985841;28;20047;-67
2023/09/20 03:20:24;;;;;;;1999.90;999.90;;;17.20;99.90;;;;;;4975293;28;20865;-68
2023/09/20 03:23:00;;;;;;;1999.90;999.90;;;17.20;99.90;;;;;;5019600;28;20047;-67
2023/09/20 03:25:35;;;;;;;1999.90;999.90;;;17.20;99.90;;;;;;4978723;28;20135;-67
2023/09/20 03:28:02;;;;;;;1999.90;999.90;;;17.20;99.90;;;;;;4972003;28;20062;-67
2023/09/20 03:30:28;;;;;;;1999.90;999.90;;;17.10;99.90;;;;;;4982042;28;20608;-67
2023/09/20 03:32:54;;;;;;;1999.90;999.90;;;17.00;99.90;;;;;;4981895;28;20155;-67
2023/09/20 03:35:20;;;;;;;1999.90;999.90;;;17.00;99.90;;;;;;4981763;28;20077;-67
2023/09/20 03:37:46;;;;;;;1999.90;999.90;;;17.00;99.90;;;;;;5009817;28;20222;-67
2023/09/20 03:40:19;;;;;;;1999.90;999.90;;;16.90;99.90;;;;;;4982159;28;20050;-67
2023/09/20 03:42:45;;;;;;;1999.90;999.90;;;16.90;99.90;;;;;;4998850;28;20051;-67
2023/09/20 03:45:13;;;;;;;1999.90;999.90;;;16.90;99.90;;;;;;4980751;28;20042;-68
2023/09/20 03:47:45;;;;;;;1999.90;999.90;;;16.90;99.90;;;;;;4986809;28;20406;-67
2023/09/20 03:50:11;;;;;;;1999.90;999.90;;;16.90;99.90;;;;;;4983428;28;20042;-67
2023/09/20 03:52:37;;;;;;;1999.90;999.90;;;16.90;99.90;;;;;;4987009;28;20044;-67
2023/09/20 03:55:03;;;;;;;1999.90;999.90;;;17.00;99.90;;;;;;4984782;28;20038;-67
2023/09/20 03:57:29;;;;;;;1999.90;999.90;;;17.00;99.90;;;;;;4979776;28;20528;-67
2023/09/20 03:59:58;;;;;;;1999.90;999.90;;;17.10;99.90;;;;;;4979760;28;20090;-67
2023/09/20 04:02:24;;;;;;;1999.90;999.90;;;17.10;99.90;;;;;;4976487;28;20046;-68
2023/09/20 04:04:50;;;;;;;1999.90;999.90;;;17.10;99.90;;;;;;4982160;28;20045;-67
2023/09/20 04:07:16;;;;;;;1999.90;999.90;;;17.10;99.90;;;;;;4980297;28;20410;-67
2023/09/20 04:09:44;;;;;;;1999.90;999.90;;;17.10;99.90;;;;;;4975366;28;20046;-67
2023/09/20 04:12:10;;;;;;;1999.90;999.90;;;17.20;99.90;;;;;;4976817;28;20042;-67
2023/09/20 04:14:36;;;;;;;1999.90;999.90;;;17.20;99.90;;;;;;4979826;28;20448;-68
2023/09/20 04:17:04;;;;;;;1999.90;999.90;;;17.10;99.90;;;;;;4980690;28;20047;-67
2023/09/20 04:19:30;;;;;;;1999.90;999.90;;;17.00;99.90;;;;;;4973820;28;20050;-67
2023/09/20 04:21:56;;;;;;;1999.90;999.90;;;17.00;99.90;;;;;;4968458;28;20046;-67
2023/09/20 04:24:22;;;;;;;1999.90;999.90;;;17.00;99.90;;;;;;4974640;28;20061;-67
2023/09/20 04:26:49;;;;;;;1999.90;999.90;;;16.90;99.90;;;;;;4979707;28;20053;-67
2023/09/20 04:29:15;;;;;;;1999.90;999.90;;;16.80;99.90;;;;;;4981495;28;20039;-67
2023/09/20 04:31:43;;;;;;;1999.90;999.90;;;16.80;99.90;;;;;;4981059;28;20133;-67
2023/09/20 04:34:11;;;;;;;1999.90;999.90;;;16.70;99.90;;;;;;4980674;28;20050;-67
2023/09/20 04:36:37;;;;;;;1999.90;999.90;;;16.60;99.90;;;;;;4981016;28;20171;-67
2023/09/20 04:39:04;;;;;;;1999.90;999.90;;;16.60;99.90;;;;;;5006073;28;20542;-67
2023/09/20 04:41:29;;;;;;;1999.90;999.90;;;16.50;99.90;;;;;;4979456;28;20124;-67
2023/09/20 04:43:55;;;;;;;1999.90;999.90;;;16.40;99.90;;;;;;4979752;28;20042;-67
2023/09/20 04:46:21;;;;;;;1999.90;999.90;;;16.40;99.90;;;;;;4975663;28;20046;-67
2023/09/20 04:48:46;;;;;;;1999.90;999.90;;;16.40;99.90;;;;;;5005442;28;20034;-67
2023/09/20 04:51:12;;;;;;;1999.90;999.90;;;16.30;99.90;;;;;;4983291;28;20404;-67
2023/09/20 04:53:39;;;;;;;1999.90;999.90;;;16.20;99.90;;;;;;4972751;28;20078;-67
2023/09/20 04:56:06;;;;;;;1999.90;999.90;;;16.20;99.90;;;;;;4984337;28;20042;-67
2023/09/20 04:58:32;;;;;;;1999.90;999.90;;;16.20;99.90;;;;;;4975269;28;20126;-67
2023/09/20 05:00:57;;;;;;;1999.90;999.90;;;16.10;99.90;;;;;;4991692;28;20133;-67
2023/09/20 05:03:24;;;;;;;1999.90;999.90;;;16.00;99.90;;;;;;4986367;28;20467;-67
2023/09/20 05:05:53;;;;;;;1999.90;999.90;;;16.00;99.90;;;;;;4975606;28;20524;-67
2023/09/20 05:08:19;;;;;;;1999.90;999.90;;;15.90;99.90;;;;;;4986348;28;20038;-67
2023/09/20 05:10:45;;;;;;;1999.90;999.90;;;15.90;99.90;;;;;;4982672;28;20046;-67
2023/09/20 05:13:10;;;;;;;1999.90;999.90;;;15.90;99.90;;;;;;4979062;28;20038;-67
2023/09/20 05:15:39;;;;;;;1999.90;999.90;;;15.90;99.90;;;;;;4979374;28;20038;-67
2023/09/20 05:18:05;;;;;;;1999.90;999.90;;;15.90;99.90;;;;;;4953308;28;20050;-67
2023/09/20 05:20:31;;;;;;;1999.90;999.90;;;15.90;99.90;;;;;;4975499;28;20121;-67
2023/09/20 05:23:04;;;;;;;1999.90;999.90;;;15.90;99.90;;;;;;4977821;28;20043;-67
2023/09/20 05:25:30;;;;;;;1999.90;999.90;;;15.90;99.90;;;;;;4974895;28;20096;-67
2023/09/20 05:27:56;;;;;;;1999.90;999.90;;;15.90;99.90;;;;;;5015712;28;20065;-68
2023/09/20 05:30:22;;;;;;;1999.90;999.90;;;15.90;99.90;;;;;;4977643;28;20039;-67
2023/09/20 05:32:51;;;;;;;1999.90;999.90;;;15.90;99.90;;;;;;4973731;28;20043;-67
2023/09/20 05:35:17;;;;;;;1999.90;999.90;;;16.00;99.90;;;;;;4981175;28;20047;-67
2023/09/20 05:37:44;;;;;;;1999.90;999.90;;;16.00;99.90;;;;;;4982339;28;20086;-67
2023/09/20 05:40:18;;;;;;;1999.90;999.90;;;16.00;99.90;;;;;;4978592;28;20105;-67
2023/09/20 05:42:47;;;;;;;1999.90;999.90;;;16.00;99.90;;;;;;4974969;28;20103;-67
2023/09/20 05:45:14;;;;;;;1999.90;999.90;;;16.10;99.90;;;;;;4982666;28;20103;-67
2023/09/20 05:47:43;;;;;;;1999.90;999.90;;;16.10;99.90;;;;;;4980995;28;20048;-67
2023/09/20 05:50:13;;;;;;;1999.90;999.90;;;16.10;99.90;;;;;;4974880;28;20043;-67
2023/09/20 05:52:41;;;;;;;1999.90;999.90;;;16.00;99.90;;;;;;4983565;28;20048;-68
2023/09/20 05:55:14;;;;;;;1999.90;999.90;;;16.00;99.90;;;;;;4973515;28;20056;-67
2023/09/20 05:57:41;;;;;;;1999.90;999.90;;;15.90;99.90;;;;;;4971634;28;20472;-67
2023/09/20 06:00:18;;;;;;;1999.90;999.90;;;15.90;99.90;;;;;;5004352;28;20574;-67
2023/09/20 06:02:45;;;;;;;1999.90;999.90;;;15.90;99.90;;;;;;4985366;28;20046;-67
2023/09/20 06:05:18;;;;;;;1999.90;999.90;;;16.00;99.90;;;;;;4978047;28;20046;-67
2023/09/20 06:07:44;;;;;;;1999.90;999.90;;;16.10;99.90;;;;;;4985526;28;20187;-68
2023/09/20 06:10:15;;;;;;;1999.90;999.90;;;16.10;99.90;;;;;;4984395;28;20542;-67
2023/09/20 06:12:41;;;;;;;1999.90;999.90;;;16.20;99.90;;;;;;4977844;28;20039;-67
2023/09/20 06:15:08;;;;;;;1999.90;999.90;;;16.20;99.90;;;;;;4966259;28;20039;-68
2023/09/20 06:17:34;;;;;;;1999.90;999.90;;;16.30;99.90;;;;;;4976169;28;20529;-67
2023/09/20 06:20:00;;;;;;;1999.90;999.90;;;16.30;99.90;;;;;;4986401;28;20153;-67
2023/09/20 06:22:29;;;;;;;1999.90;999.90;;;16.30;99.90;;;;;;4987215;28;20046;-66
2023/09/20 06:24:58;;;;;;;1999.90;999.90;;;16.40;99.90;;;;;;4982462;28;20076;-66
2023/09/20 06:27:30;;;;;;;1999.90;999.90;;;16.40;99.90;;;;;;4965027;28;20111;-67
2023/09/20 06:30:05;;;;;;;1999.90;999.90;;;16.40;99.90;;;;;;4987369;28;20067;-66
2023/09/20 06:32:33;;;;;;;1999.90;999.90;;;16.40;99.90;;;;;;4979291;28;20452;-67
2023/09/20 06:35:03;;;;;;;1999.90;999.90;;;16.40;99.90;;;;;;4988741;28;20046;-67
2023/09/20 06:37:29;;;;;;;1999.90;999.90;;;16.40;99.90;;;;;;4985341;28;20046;-67
2023/09/20 06:39:56;;;;;;;1999.90;999.90;;;16.50;99.90;;;;;;4987391;28;20115;-66
2023/09/20 06:42:22;;;;;;;1999.90;999.90;;;16.50;99.90;;;;;;4984015;28;20100;-67
2023/09/20 06:44:49;;;;;;;1999.90;999.90;;;16.60;99.90;;;;;;4976456;28;20091;-67
2023/09/20 06:47:17;;;;;;;1999.90;999.90;;;16.60;99.90;;;;;;4978866;28;20489;-67
2023/09/20 06:49:43;;;;;;;1999.90;999.90;;;16.60;99.90;;;;;;4978314;28;20067;-67
2023/09/20 06:52:08;;;;;;;1999.90;999.90;;;16.70;99.90;;;;;;4982859;28;20548;-66
2023/09/20 06:54:36;;;;;;;1999.90;999.90;;;16.70;99.90;;;;;;5019402;28;20161;-67
2023/09/20 06:57:03;;;;;;;1999.90;999.90;;;16.70;99.90;;;;;;4965506;28;20053;-67
2023/09/20 06:59:33;;;;;;;1999.90;999.90;;;16.70;99.90;;;;;;4987119;28;20095;-68
2023/09/20 07:02:00;;;;;;;1999.90;999.90;;;16.70;99.90;;;;;;4981155;28;20043;-67
2023/09/20 07:04:26;;;;;;;1999.90;999.90;;;16.70;99.90;;;;;;4970866;28;20046;-67
2023/09/20 07:06:54;;;;;;;1999.90;999.90;;;16.70;99.90;;;;;;4984604;28;20133;-67
2023/09/20 07:09:19;;;;;;;1999.90;999.90;;;16.80;99.90;;;;;;4986685;28;20054;-67
2023/09/20 07:11:46;;;;;;;1999.90;999.90;;;16.70;99.90;;;;;;4979879;28;20042;-67
2023/09/20 07:14:13;;;;;;;1999.90;999.90;;;16.80;99.90;;;;;;4984861;28;20046;-67
2023/09/20 07:16:39;;;;;;;1999.90;999.90;;;16.80;99.90;;;;;;4982119;28;20042;-67
2023/09/20 07:19:05;;;;;;;1999.90;999.90;;;16.90;99.90;;;;;;4971873;28;20129;-67
2023/09/20 07:21:37;;;;;;;1999.90;999.90;;;16.90;99.90;;;;;;4974816;28;20046;-67
2023/09/20 07:24:06;;;;;;;1999.90;999.90;;;16.90;99.90;;;;;;4969070;28;20800;-67
2023/09/20 07:26:32;;;;;;;1999.90;999.90;;;17.00;99.90;;;;;;4980810;28;20521;-67
2023/09/20 07:28:59;;;;;;;1999.90;999.90;;;17.10;99.90;;;;;;4986143;28;20045;-67
2023/09/20 07:31:26;;;;;;;1999.90;999.90;;;17.10;99.90;;;;;;4982497;28;20551;-67
2023/09/20 07:33:55;;;;;;;1999.90;999.90;;;17.20;99.90;;;;;;4976524;28;20050;-67
2023/09/20 07:36:20;;;;;;;1999.90;999.90;;;17.30;99.90;;;;;;4974692;28;20069;-67
2023/09/20 07:38:46;;;;;;;1999.90;999.90;;;17.40;99.90;;;;;;4986328;28;20042;-67
2023/09/20 07:41:17;;;;;;;1999.90;999.90;;;17.40;99.90;;;;;;4977648;28;20050;-67
2023/09/20 07:43:44;;;;;;;1999.90;999.90;;;17.50;99.90;;;;;;5015787;28;20410;-67
2023/09/20 07:46:13;;;;;;;1999.90;999.90;;;17.50;99.90;;;;;;4977050;28;20564;-67
2023/09/20 07:48:48;;;;;;;1999.90;999.90;;;17.50;99.90;;;;;;4983910;28;20050;-67
2023/09/20 07:51:14;;;;;;;1999.90;999.90;;;17.60;99.90;;;;;;4978005;28;20093;-67
2023/09/20 07:53:40;;;;;;;1999.90;999.90;;;17.70;99.90;;;;;;4985289;28;20201;-66
2023/09/20 07:56:07;;;;;;;1999.90;999.90;;;17.80;99.90;;;;;;4987379;28;20050;-67
2023/09/20 07:58:36;;;;;;;1999.90;999.90;;;18.00;99.90;;;;;;4986754;28;20558;-67
2023/09/20 08:01:10;;;;;;;1999.90;999.90;;;18.10;99.90;;;;;;4978019;28;20046;-67
2023/09/20 08:03:36;;;;;;;1999.90;999.90;;;18.30;99.90;;;;;;4986251;28;20368;-67
2023/09/20 08:06:08;;;;;;;1999.90;999.90;;;18.20;99.90;;;;;;4982037;28;20445;-67
2023/09/20 08:08:35;;;;;;;1999.90;999.90;;;18.20;99.90;;;;;;4978761;28;20042;-67
2023/09/20 08:11:01;;;;;;;1999.90;999.90;;;18.20;99.90;;;;;;4987025;28;20097;-67
2023/09/20 08:13:26;;;;;;;1999.90;999.90;;;18.30;99.90;;;;;;4985252;28;20054;-67
2023/09/20 08:15:52;;;;;;;1999.90;999.90;;;18.50;99.90;;;;;;4980429;28;20046;-67
2023/09/20 08:21:04;;;;;;;1999.90;999.90;;;18.70;99.90;;;;;;4981043;28;20487;-67
2023/09/20 09:02:15;;;;;;;1999.90;999.90;;;18.30;99.90;;;;;;4978036;28;20054;-68
2023/09/20 09:04:45;;;;;;;1999.90;999.90;;;18.20;99.90;;;;;;4986094;28;20046;-66
2023/09/20 09:07:12;;;;;;;1999.90;999.90;;;18.20;99.90;;;;;;4991899;28;20044;-66
2023/09/20 09:09:38;;;;;;;1999.90;999.90;;;18.20;99.90;;;;;;5007172;28;20440;-67
2023/09/20 09:12:04;;;;;;;1999.90;999.90;;;18.30;99.90;;;;;;4977571;28;20045;-67
2023/09/20 09:14:31;;;;;;;1999.90;999.90;;;18.30;99.90;;;;;;4994920;28;20046;-67
2023/09/20 09:17:03;;;;;;;1999.90;999.90;;;18.30;99.90;;;;;;4994748;28;20048;-67
2023/09/20 09:19:30;;;;;;;1999.90;999.90;;;18.30;99.90;;;;;;4989719;28;20050;-67
2023/09/20 09:21:59;;;;;;;1999.90;999.90;;;18.30;99.90;;;;;;4982853;28;20049;-67
2023/09/20 09:24:25;;;;;;;1999.90;999.90;;;18.30;99.90;;;;;;4977954;28;20117;-67
2023/09/20 09:27:05;;;;;;;1999.90;999.90;;;18.30;99.90;;;;;;4980688;28;20380;-67
2023/09/20 09:29:30;;;;;;;1999.90;999.90;;;18.30;99.90;;;;;;4980890;28;20441;-67
2023/09/20 09:31:56;;;;;;;1999.90;999.90;;;18.30;99.90;;;;;;4986069;28;20220;-67
2023/09/20 09:34:22;;;;;;;1999.90;999.90;;;18.30;99.90;;;;;;4979757;28;20640;-67
2023/09/20 09:36:48;;;;;;;1999.90;999.90;;;18.40;99.90;;;;;;4976317;28;20402;-67
2023/09/20 09:39:14;;;;;;;1999.90;999.90;;;18.40;99.90;;;;;;4974906;28;20464;-66
2023/09/20 09:41:44;;;;;;;1999.90;999.90;;;18.40;99.90;;;;;;5000608;28;20086;-67
2023/09/20 09:44:17;;;;;;;1999.90;999.90;;;18.40;99.90;;;;;;4972888;28;20111;-67
2023/09/20 09:46:43;;;;;;;1999.90;999.90;;;18.40;99.90;;;;;;4972416;28;20053;-67
2023/09/20 09:49:11;;;;;;;1999.90;999.90;;;18.40;99.90;;;;;;4976169;28;20491;-67
2023/09/20 09:51:50;;;;;;;1999.90;999.90;;;18.40;99.90;;;;;;4976406;28;20829;-66
2023/09/20 09:54:17;;;;;;;1999.90;999.90;;;18.50;99.90;;;;;;4975133;28;20094;-67
2023/09/20 09:56:43;;;;;;;1999.90;999.90;;;18.50;99.90;;;;;;4992041;28;20225;-67
2023/09/20 09:59:10;;;;;;;1999.90;999.90;;;18.60;99.90;;;;;;4992884;28;20043;-67
2023/09/20 10:01:37;;;;;;;1999.90;999.90;;;18.60;99.90;;;;;;4973570;28;20046;-66
2023/09/20 10:04:08;;;;;;;1999.90;999.90;;;18.70;99.90;;;;;;4980020;28;20055;-67
2023/09/20 10:06:53;;;;;;;1999.90;999.90;;;18.70;99.90;;;;;;4978990;28;20466;-67
2023/09/20 10:09:24;;;;;;;1999.90;999.90;;;18.80;99.90;;;;;;5008223;28;20042;-67
2023/09/20 10:11:50;;;;;;;1999.90;999.90;;;18.70;99.90;;;;;;4972290;28;20038;-67
2023/09/20 10:14:18;;;;;;;1999.90;999.90;;;18.70;99.90;;;;;;4979525;28;20099;-67
2023/09/20 10:16:44;;;;;;;1999.90;999.90;;;18.70;99.90;;;;;;4973172;28;20055;-67
2023/09/20 10:19:13;;;;;;;1999.90;999.90;;;18.80;99.90;;;;;;5017295;27;20059;-67
2023/09/20 10:21:58;;;;;;;1999.90;999.90;;;18.70;99.90;;;;;;4991915;28;20117;-66
2023/09/20 10:24:29;;;;;;;1999.90;999.90;;;18.60;99.90;;;;;;4963145;28;20046;-67
2023/09/20 10:27:02;;;;;;;1999.90;999.90;;;18.60;99.90;;;;;;4979917;28;20544;-67
2023/09/20 10:29:31;;;;;;;1999.90;999.90;;;18.70;99.90;;;;;;5003184;28;20042;-67
2023/09/20 10:32:19;;;;;;;1999.90;999.90;;;18.70;99.90;;;;;;4982481;28;20042;-67
2023/09/20 10:35:19;;;;;;;1999.90;999.90;;;18.80;99.90;;;;;;4975546;28;20050;-67
2023/09/20 10:38:17;;;;;;;1999.90;999.90;;;18.80;99.90;;;;;;4977842;28;20939;-67
2023/09/20 10:40:47;;;;;;;1999.90;999.90;;;18.80;99.90;;;;;;4988596;28;20058;-67
2023/09/20 10:43:20;;;;;;;1999.90;999.90;;;18.80;99.90;;;;;;4988592;28;20050;-67
2023/09/20 10:45:51;;;;;;;1999.90;999.90;;;18.70;99.90;;;;;;4975028;28;20481;-67
2023/09/20 10:48:23;;;;;;;1999.90;999.90;;;18.70;99.90;;;;;;4980477;28;20489;-66
2023/09/20 10:50:52;;;;;;;1999.90;999.90;;;18.70;99.90;;;;;;4974022;28;20045;-67
2023/09/20 10:53:19;;;;;;;1999.90;999.90;;;18.80;99.90;;;;;;4997414;28;20548;-67
2023/09/20 10:55:45;;;;;;;1999.90;999.90;;;18.70;99.90;;;;;;4993769;28;20524;-67
2023/09/20 10:58:15;;;;;;;1999.90;999.90;;;18.70;99.90;;;;;;5024281;27;20065;-66
2023/09/20 11:00:40;;;;;;;1999.90;999.90;;;18.70;99.90;;;;;;4979067;28;20050;-67
2023/09/20 11:03:09;;;;;;;1999.90;999.90;;;18.70;99.90;;;;;;4971897;28;20043;-67
2023/09/20 11:05:36;;;;;;;1999.90;999.90;;;18.80;99.90;;;;;;4977750;28;20050;-66
2023/09/20 11:08:10;;;;;;;1999.90;999.90;;;18.80;99.90;;;;;;4966404;28;20084;-67
2023/09/20 11:10:40;;;;;;;1999.90;999.90;;;18.80;99.90;;;;;;4977462;28;20039;-66
2023/09/20 11:13:10;;;;;;;1999.90;999.90;;;18.90;99.90;;;;;;4968601;28;20090;-67
2023/09/20 11:15:41;;;;;;;1999.90;999.90;;;19.00;99.90;;;;;;4965069;28;20051;-67
2023/09/20 11:18:15;;;;;;;1999.90;999.90;;;19.00;99.90;;;;;;4977241;28;20112;-67
2023/09/20 11:20:42;;;;;;;1999.90;999.90;;;19.00;99.90;;;;;;4994398;28;20519;-67
2023/09/20 11:23:09;;;;;;;1999.90;999.90;;;19.00;99.90;;;;;;4985908;28;20510;-67
2023/09/20 11:25:35;;;;;;;1999.90;999.90;;;19.10;99.90;;;;;;4971224;28;20043;-66
2023/09/20 11:28:02;;;;;;;1999.90;999.90;;;19.10;99.90;;;;;;4973776;28;20048;-66
2023/09/20 11:30:28;;;;;;;1999.90;999.90;;;19.10;99.90;;;;;;4987372;28;20034;-67
2023/09/20 11:32:54;;;;;;;1999.90;999.90;;;19.10;99.90;;;;;;4968765;28;20046;-66
2023/09/20 11:35:32;;;;;;;1999.90;999.90;;;19.20;99.90;;;;;;4948301;28;20126;-67
2023/09/20 11:37:58;;;;;;;1999.90;999.90;;;19.20;99.90;;;;;;4953764;28;20128;-67
2023/09/20 11:40:23;;;;;;;1999.90;999.90;;;19.20;99.90;;;;;;4996241;28;20094;-66
2023/09/20 11:42:52;;;;;;;1999.90;999.90;;;19.20;99.90;;;;;;5033442;28;20399;-66
2023/09/20 11:45:17;;;;;;;1999.90;999.90;;;19.20;99.90;;;;;;4978636;28;20095;-67
2023/09/20 11:47:44;;;;;;;1999.90;999.90;;;19.20;99.90;;;;;;4976291;28;20393;-66
2023/09/20 11:50:13;;;;;;;1999.90;999.90;;;19.20;99.90;;;;;;4968689;28;20045;-66
2023/09/20 11:52:46;;;;;;;1999.90;999.90;;;19.30;99.90;;;;;;4995626;28;20047;-66
2023/09/20 11:55:13;;;;;;;1999.90;999.90;;;19.30;99.90;;;;;;4982648;28;20042;-66
2023/09/20 11:57:42;;;;;;;1999.90;999.90;;;19.30;99.90;;;;;;5009164;28;20039;-66
2023/09/20 12:00:12;;;;;;;1999.90;999.90;;;19.30;99.90;;;;;;4999447;28;20123;-66
2023/09/20 12:02:38;;;;;;;1999.90;999.90;;;19.30;99.90;;;;;;4996282;28;20074;-66
2023/09/20 12:05:04;;;;;;;1999.90;999.90;;;19.20;99.90;;;;;;4980616;28;20053;-66
2023/09/20 12:07:30;;;;;;;1999.90;999.90;;;19.20;99.90;;;;;;4975681;28;20051;-66
2023/09/20 12:09:55;;;;;;;1999.90;999.90;;;19.20;99.90;;;;;;4976510;28;20030;-66
2023/09/20 12:12:21;;;;;;;1999.90;999.90;;;19.20;99.90;;;;;;5011355;28;20055;-66
2023/09/20 12:14:46;;;;;;;1999.90;999.90;;;19.20;99.90;;;;;;4984637;28;20486;-66
2023/09/20 12:17:12;;;;;;;1999.90;999.90;;;19.30;99.90;;;;;;4977781;28;20049;-66
2023/09/20 12:19:38;;;;;;;1999.90;999.90;;;19.30;99.90;;;;;;4976007;28;20057;-66
2023/09/20 12:22:03;;;;;;;1999.90;999.90;;;19.40;99.90;;;;;;4992630;28;20089;-66
2023/09/20 12:24:29;;;;;;;422.92;401.80;;;19.50;99.90;;;;;;5015493;27;20047;-66
2023/09/20 12:26:56;;;;;;;361.67;344.17;;;19.50;99.90;;;;;;5011129;27;20046;-66
2023/09/20 12:29:22;;;;;;;479.42;455.05;;;19.60;99.90;;;;;;4999653;28;20525;-66
2023/09/20 12:31:49;;;;;;;409.65;388.67;;;19.60;99.90;;;;;;4976035;28;20070;-66
2023/09/20 12:34:16;;;;;;;410.02;389.60;;;19.50;99.90;;;;;;4982745;28;20099;-67
2023/09/20 12:36:42;;;;;;;445.98;422.83;;;19.50;99.90;;;;;;4978479;28;20085;-66
2023/09/20 12:39:10;;;;;;;1612.30;856.78;;;19.40;99.90;;;;;;4976063;28;20085;-66
2023/09/20 12:41:37;;;;;;;1999.90;999.90;;;19.40;99.90;;;;;;4980682;28;20141;-66
2023/09/20 12:44:04;;;;;;;434.15;412.15;;;19.40;99.90;;;;;;4976686;28;20062;-69